Time;durP1;ratioP1;P1;durP2;ratioP2;P2;SDS_P1;SDS_P2;PMS_P1;PMS_P2;Temp;Humidity;BMP_temperature;BMP_pressure;BME280_temperature;BME280_humidity;BME280_pressure;Samples;Min_cycle;Max_cycle;Signal;HPM_P1;HPM_P2
2023/08/18 00:00:28;;;;;;;;;;;16.80;99.90;;;;;;7328054;19;9471;-82
2023/08/18 00:02:57;;;;;;;;;;;16.80;99.90;;;;;;7328047;19;8944;-82
2023/08/18 00:05:26;;;;;;;;;;;16.80;99.90;;;;;;7328031;19;9436;-83
2023/08/18 00:07:56;;;;;;;;;;;16.80;99.90;;;;;;7327638;19;9201;-82
2023/08/18 00:10:25;;;;;;;;;;;16.80;99.90;;;;;;7327502;19;9189;-82
2023/08/18 00:12:56;;;;;;;;;;;16.70;99.90;;;;;;7327410;19;9524;-82
2023/08/18 00:15:25;;;;;;;;;;;16.80;99.90;;;;;;7325128;19;10448;-82
2023/08/18 00:17:54;;;;;;;;;;;16.80;99.90;;;;;;7327629;19;10659;-82
2023/08/18 00:20:23;;;;;;;;;;;16.70;99.90;;;;;;7327465;19;9107;-82
2023/08/18 00:22:52;;;;;;;;;;;16.70;99.90;;;;;;7327876;19;9462;-83
2023/08/18 00:25:21;;;;;;;;;;;16.70;99.90;;;;;;7327541;19;9113;-82
2023/08/18 00:27:54;;;;;;;;;;;16.70;99.90;;;;;;7327032;19;9488;-83
2023/08/18 00:30:26;;;;;;;;;;;16.70;99.90;;;;;;7326728;19;9493;-82
2023/08/18 00:32:55;;;;;;;;;;;16.70;99.90;;;;;;7326995;19;9235;-82
2023/08/18 00:35:24;;;;;;;;;;;16.70;99.90;;;;;;7324647;19;9216;-82
2023/08/18 00:37:53;;;;;;;;;;;16.70;99.90;;;;;;7326581;19;9185;-82
2023/08/18 00:40:22;;;;;;;;;;;16.70;99.90;;;;;;7325338;19;9260;-83
2023/08/18 00:42:52;;;;;;;;;;;16.70;99.90;;;;;;7325511;19;9211;-82
2023/08/18 00:45:21;;;;;;;;;;;16.70;99.90;;;;;;7326290;19;9058;-82
2023/08/18 00:47:53;;;;;;;;;;;16.70;99.90;;;;;;7326501;19;9321;-82
2023/08/18 00:50:23;;;;;;;;;;;16.70;99.90;;;;;;7326765;19;9183;-82
2023/08/18 00:52:59;;;;;;;;;;;16.70;99.90;;;;;;7326252;19;8944;-83
2023/08/18 00:55:29;;;;;;;;;;;16.70;99.90;;;;;;7326523;19;9289;-82
2023/08/18 00:57:59;;;;;;;;;;;16.70;99.90;;;;;;7326166;19;9164;-83
2023/08/18 01:00:28;;;;;;;;;;;16.70;99.90;;;;;;7325828;19;9272;-83
2023/08/18 01:03:00;;;;;;;;;;;16.70;99.90;;;;;;7325671;19;9181;-83
2023/08/18 01:05:29;;;;;;;;;;;16.70;99.90;;;;;;7325739;19;9225;-82
2023/08/18 01:07:59;;;;;;;;;;;16.70;99.90;;;;;;7323562;19;10890;-82
2023/08/18 01:10:30;;;;;;;;;;;16.70;99.90;;;;;;7325574;19;9193;-82
2023/08/18 01:13:11;;;;;;;;;;;16.70;99.90;;;;;;7325580;19;9165;-82
2023/08/18 01:15:45;;;;;;;;;;;16.60;99.90;;;;;;7323681;19;9376;-82
2023/08/18 01:18:18;;;;;;;;;;;16.70;99.90;;;;;;7325397;19;9172;-82
2023/08/18 01:20:47;;;;;;;;;;;16.60;99.90;;;;;;7325411;19;9234;-82
2023/08/18 01:23:19;;;;;;;;;;;16.60;99.90;;;;;;7325082;19;9496;-82
2023/08/18 01:25:48;;;;;;;;;;;16.60;99.90;;;;;;7325364;19;8945;-82
2023/08/18 01:28:18;;;;;;;;;;;16.60;99.90;;;;;;7325183;19;9244;-82
2023/08/18 01:30:50;;;;;;;;;;;16.60;99.90;;;;;;7325050;19;9187;-81
2023/08/18 01:33:31;;;;;;;;;;;16.60;99.90;;;;;;7325322;19;9275;-82
2023/08/18 01:36:07;;;;;;;;;;;16.50;99.90;;;;;;7325446;19;10372;-82
2023/08/18 01:38:41;;;;;;;;;;;16.50;99.90;;;;;;7324685;19;9232;-82
2023/08/18 01:41:11;;;;;;;;;;;16.60;99.90;;;;;;7323047;19;9191;-82
2023/08/18 01:43:41;;;;;;;;;;;16.50;99.90;;;;;;7323058;19;9229;-82
2023/08/18 01:46:10;;;;;;;;;;;16.50;99.90;;;;;;7324347;19;9177;-82
2023/08/18 01:48:39;;;;;;;;;;;16.50;99.90;;;;;;7324135;19;9195;-82
2023/08/18 01:51:08;;;;;;;;;;;16.50;99.90;;;;;;7324255;19;9187;-82
2023/08/18 01:53:39;;;;;;;;;;;16.50;99.90;;;;;;7324254;19;9276;-82
2023/08/18 01:56:08;;;;;;;;;;;16.50;99.90;;;;;;7327333;19;9242;-82
2023/08/18 01:58:37;;;;;;;;;;;16.50;99.90;;;;;;7324083;19;9136;-82
2023/08/18 02:01:06;;;;;;;;;;;16.50;99.90;;;;;;7323786;19;9285;-82
2023/08/18 02:03:36;;;;;;;;;;;16.50;99.90;;;;;;7323920;19;9223;-82
2023/08/18 02:06:05;;;;;;;;;;;16.50;99.90;;;;;;7323731;19;9174;-82
2023/08/18 02:08:35;;;;;;;;;;;16.50;99.90;;;;;;7322114;19;9241;-81
2023/08/18 02:11:07;;;;;;;;;;;16.50;99.90;;;;;;7324059;19;9263;-82
2023/08/18 02:13:36;;;;;;;;;;;16.50;99.90;;;;;;7323498;19;9463;-82
2023/08/18 02:16:09;;;;;;;;;;;16.50;99.90;;;;;;7320151;19;10734;-82
2023/08/18 02:18:38;;;;;;;;;;;16.50;99.90;;;;;;7322659;19;10613;-82
2023/08/18 02:21:07;;;;;;;;;;;16.50;99.90;;;;;;7321416;19;12302;-82
2023/08/18 02:23:36;;;;;;;;;;;16.40;99.90;;;;;;7323274;19;9302;-82
2023/08/18 02:26:08;;;;;;;;;;;16.40;99.90;;;;;;7323623;19;9169;-82
2023/08/18 02:28:38;;;;;;;;;;;16.40;99.90;;;;;;7323290;19;9184;-82
2023/08/18 02:31:10;;;;;;;;;;;16.40;99.90;;;;;;7323623;19;8944;-82
2023/08/18 02:33:39;;;;;;;;;;;16.30;99.90;;;;;;7323693;19;9300;-82
2023/08/18 02:36:09;;;;;;;;;;;16.30;99.90;;;;;;7321810;19;9141;-82
2023/08/18 02:38:38;;;;;;;;;;;16.30;99.90;;;;;;7322930;19;9177;-82
2023/08/18 02:41:09;;;;;;;;;;;16.30;99.90;;;;;;7321493;19;9376;-82
2023/08/18 02:43:38;;;;;;;;;;;16.30;99.90;;;;;;7321826;19;9499;-82
2023/08/18 02:46:07;;;;;;;;;;;16.20;99.90;;;;;;7323059;19;9482;-82
2023/08/18 02:48:36;;;;;;;;;;;16.20;99.90;;;;;;7322961;19;9161;-82
2023/08/18 02:51:06;;;;;;;;;;;16.20;99.90;;;;;;7322946;19;9148;-82
2023/08/18 02:53:35;;;;;;;;;;;16.20;99.90;;;;;;7322526;19;9162;-82
2023/08/18 02:56:04;;;;;;;;;;;16.20;99.90;;;;;;7324650;19;9212;-82
2023/08/18 02:58:36;;;;;;;;;;;16.20;99.90;;;;;;7322424;19;9221;-82
2023/08/18 03:01:07;;;;;;;;;;;16.20;99.90;;;;;;7322189;19;9252;-82
2023/08/18 03:03:37;;;;;;;;;;;16.20;99.90;;;;;;7322276;19;9159;-82
2023/08/18 03:06:08;;;;;;;;;;;16.20;99.90;;;;;;7322074;19;9182;-82
2023/08/18 03:08:39;;;;;;;;;;;16.30;99.90;;;;;;7321968;19;9398;-82
2023/08/18 03:11:08;;;;;;;;;;;16.30;99.90;;;;;;7321857;19;10642;-82
2023/08/18 03:13:40;;;;;;;;;;;16.30;99.90;;;;;;7321914;19;9501;-82
2023/08/18 03:16:09;;;;;;;;;;;16.30;99.90;;;;;;7319841;19;9070;-82
2023/08/18 03:18:38;;;;;;;;;;;16.40;99.90;;;;;;7321819;19;9243;-82
2023/08/18 03:21:07;;;;;;;;;;;16.40;99.90;;;;;;7321691;19;9230;-82
2023/08/18 03:23:36;;;;;;;;;;;16.40;99.90;;;;;;7321902;19;9169;-82
2023/08/18 03:26:06;;;;;;;;;;;16.40;99.90;;;;;;7321725;19;9322;-82
2023/08/18 03:28:39;;;;;;;;;;;16.40;99.90;;;;;;7321442;19;9233;-82
2023/08/18 03:31:10;;;;;;;;;;;16.40;99.90;;;;;;7327570;19;9458;-82
2023/08/18 03:33:39;;;;;;;;;;;16.50;99.90;;;;;;7328804;19;9477;-82
2023/08/18 03:36:08;;;;;;;;;;;16.50;99.90;;;;;;7326278;19;9261;-82
2023/08/18 03:38:37;;;;;;;;;;;16.50;99.90;;;;;;7328456;19;9302;-82
2023/08/18 03:41:08;;;;;;;;;;;16.50;99.90;;;;;;7326123;19;10411;-82
2023/08/18 03:43:40;;;;;;;;;;;16.50;99.90;;;;;;7326491;19;10643;-82
2023/08/18 03:46:25;;;;;;;;;;;16.50;99.90;;;;;;7328340;19;9505;-82
2023/08/18 03:48:54;;;;;;;;;;;16.50;99.90;;;;;;7328444;19;9208;-82
2023/08/18 03:51:23;;;;;;;;;;;16.50;99.90;;;;;;7328185;19;9181;-82
2023/08/18 03:53:52;;;;;;;;;;;16.50;99.90;;;;;;7327794;19;9227;-82
2023/08/18 03:56:21;;;;;;;;;;;16.50;99.90;;;;;;7330562;19;9208;-82
2023/08/18 03:58:52;;;;;;;;;;;16.50;99.90;;;;;;7328148;19;10693;-83
2023/08/18 04:01:21;;;;;;;;;;;16.50;99.90;;;;;;7327760;19;9190;-83
2023/08/18 04:03:51;;;;;;;;;;;16.50;99.90;;;;;;7327686;19;9453;-82
2023/08/18 04:06:20;;;;;;;;;;;16.50;99.90;;;;;;7327683;19;9205;-83
2023/08/18 04:08:50;;;;;;;;;;;16.50;99.90;;;;;;7327829;19;9238;-82
2023/08/18 04:11:19;;;;;;;;;;;16.50;99.90;;;;;;7327549;19;9244;-82
2023/08/18 04:13:48;;;;;;;;;;;16.50;99.90;;;;;;7327744;19;9245;-82
2023/08/18 04:16:19;;;;;;;;;;;16.50;99.90;;;;;;7325812;19;9231;-83
2023/08/18 04:18:48;;;;;;;;;;;16.50;99.90;;;;;;7327498;19;9195;-82
2023/08/18 04:21:17;;;;;;;;;;;16.60;99.90;;;;;;7327673;19;9196;-82
2023/08/18 04:23:46;;;;;;;;;;;16.60;99.90;;;;;;7327424;19;9605;-82
2023/08/18 04:26:15;;;;;;;;;;;16.50;99.90;;;;;;7326985;19;9704;-82
2023/08/18 04:28:44;;;;;;;;;;;16.60;99.90;;;;;;7326883;19;9502;-82
2023/08/18 04:31:13;;;;;;;;;;;16.60;99.90;;;;;;7326568;19;9179;-82
2023/08/18 04:33:45;;;;;;;;;;;16.60;99.90;;;;;;7327132;19;8948;-82
2023/08/18 04:36:14;;;;;;;;;;;16.60;99.90;;;;;;7325084;19;9461;-82
2023/08/18 04:38:43;;;;;;;;;;;16.60;99.90;;;;;;7326893;19;9483;-82
2023/08/18 04:41:12;;;;;;;;;;;16.60;99.90;;;;;;7324673;19;9209;-82
2023/08/18 04:43:41;;;;;;;;;;;16.60;99.90;;;;;;7325318;19;9200;-82
2023/08/18 04:46:10;;;;;;;;;;;16.60;99.90;;;;;;7326779;19;10377;-82
2023/08/18 04:48:39;;;;;;;;;;;16.60;99.90;;;;;;7326431;19;9531;-82
2023/08/18 04:51:11;;;;;;;;;;;16.60;99.90;;;;;;7326280;19;9259;-82
2023/08/18 04:53:40;;;;;;;;;;;16.70;99.90;;;;;;7326454;19;9221;-82
2023/08/18 04:56:09;;;;;;;;;;;16.70;99.90;;;;;;7329080;19;9193;-82
2023/08/18 04:58:38;;;;;;;;;;;16.60;99.90;;;;;;7326063;19;8961;-82
2023/08/18 05:01:07;;;;;;;;;;;16.60;99.90;;;;;;7325820;19;9169;-82
2023/08/18 05:03:36;;;;;;;;;;;16.60;99.90;;;;;;7325730;19;9181;-82
2023/08/18 05:06:08;;;;;;;;;;;16.60;99.90;;;;;;7325455;19;9205;-82
2023/08/18 05:08:40;;;;;;;;;;;16.60;99.90;;;;;;7325648;19;9529;-82
2023/08/18 05:11:12;;;;;;;;;;;16.70;99.90;;;;;;7325506;19;9315;-82
2023/08/18 05:13:43;;;;;;;;;;;16.70;99.90;;;;;;7325615;19;9108;-82
2023/08/18 05:16:12;;;;;;;;;;;16.70;99.90;;;;;;7324208;19;9185;-82
2023/08/18 05:18:42;;;;;;;;;;;16.70;99.90;;;;;;7324909;19;11196;-82
2023/08/18 05:21:11;;;;;;;;;;;16.70;99.90;;;;;;7325100;19;9531;-82
2023/08/18 05:23:43;;;;;;;;;;;16.70;99.90;;;;;;7325126;19;9209;-82
2023/08/18 05:26:12;;;;;;;;;;;16.70;99.90;;;;;;7325075;19;9257;-82
2023/08/18 05:28:42;;;;;;;;;;;16.80;99.90;;;;;;7325142;19;9562;-82
2023/08/18 05:31:11;;;;;;;;;;;16.80;99.90;;;;;;7325234;19;9530;-82
2023/08/18 05:33:40;;;;;;;;;;;16.80;99.90;;;;;;7324869;19;9257;-82
2023/08/18 05:36:09;;;;;;;;;;;16.80;99.90;;;;;;7324246;19;9211;-82
2023/08/18 05:38:38;;;;;;;;;;;16.80;99.90;;;;;;7324813;19;9498;-82
2023/08/18 05:41:16;;;;;;;;;;;16.80;99.90;;;;;;7322932;19;9475;-82
2023/08/18 05:43:45;;;;;;;;;;;16.80;99.90;;;;;;7323308;19;9250;-82
2023/08/18 05:46:15;;;;;;;;;;;16.90;99.90;;;;;;7324463;19;8944;-82
2023/08/18 05:48:44;;;;;;;;;;;16.90;99.90;;;;;;7324556;19;9246;-82
2023/08/18 05:51:13;;;;;;;;;;;16.90;99.90;;;;;;7324471;19;9473;-82
2023/08/18 05:53:42;;;;;;;;;;;16.90;99.90;;;;;;7323559;19;9121;-82
2023/08/18 05:56:13;;;;;;;;;;;16.90;99.90;;;;;;7323260;19;9347;-82
2023/08/18 05:58:42;;;;;;;;;;;16.90;99.90;;;;;;7323861;19;9290;-82
2023/08/18 06:01:11;;;;;;;;;;;16.90;99.90;;;;;;7323863;19;10149;-82
2023/08/18 06:03:40;;;;;;;;;;;17.00;99.90;;;;;;7323780;19;9223;-82
2023/08/18 06:06:09;;;;;;;;;;;17.00;99.90;;;;;;7321958;19;10522;-82
2023/08/18 06:08:38;;;;;;;;;;;17.00;99.90;;;;;;7324015;19;9207;-81
2023/08/18 06:11:07;;;;;;;;;;;17.00;99.90;;;;;;7323625;19;9160;-82
2023/08/18 06:13:40;;;;;;;;;;;17.10;99.90;;;;;;7323376;19;9310;-81
2023/08/18 06:16:09;;;;;;;;;;;17.10;99.90;;;;;;7322730;19;9426;-81
2023/08/18 06:18:38;;;;;;;;;;;17.10;99.90;;;;;;7323340;19;9178;-82
2023/08/18 06:21:08;;;;;;;;;;;17.20;99.90;;;;;;7323312;19;9190;-81
2023/08/18 06:23:37;;;;;;;;;;;17.20;99.90;;;;;;7323171;19;9453;-82
2023/08/18 06:26:06;;;;;;;;;;;17.20;99.90;;;;;;7323564;19;9538;-82
2023/08/18 06:28:35;;;;;;;;;;;17.20;99.90;;;;;;7323246;19;9445;-82
2023/08/18 06:31:11;;;;;;;;;;;17.30;99.90;;;;;;7323375;19;10165;-82
2023/08/18 06:33:40;;;;;;;;;;;17.30;99.90;;;;;;7323263;19;9367;-82
2023/08/18 06:36:09;;;;;;;;;;;17.30;99.90;;;;;;7322194;19;9171;-81
2023/08/18 06:38:38;;;;;;;;;;;17.40;99.90;;;;;;7322872;19;9197;-82
2023/08/18 06:41:07;;;;;;;;;;;17.40;99.90;;;;;;7321306;19;9529;-82
2023/08/18 06:43:36;;;;;;;;;;;17.50;99.90;;;;;;7321347;19;9338;-82
2023/08/18 06:46:09;;;;;;;;;;;17.50;99.90;;;;;;7322793;19;9200;-81
2023/08/18 06:48:38;;;;;;;;;;;17.50;99.90;;;;;;7322550;19;11173;-82
2023/08/18 06:51:07;;;;;;;;;;;17.50;99.90;;;;;;7323372;19;9147;-82
2023/08/18 06:53:36;;;;;;;;;;;17.50;99.90;;;;;;7323656;19;9194;-82
2023/08/18 06:56:06;;;;;;;;;;;17.60;99.90;;;;;;7322086;19;9194;-82
2023/08/18 06:58:35;;;;;;;;;;;17.60;99.90;;;;;;7322923;19;9229;-82
2023/08/18 07:01:04;;;;;;;;;;;17.60;99.90;;;;;;7322980;19;9125;-83
2023/08/18 07:03:35;;;;;;;;;;;17.60;99.90;;;;;;7322440;19;9435;-83
2023/08/18 07:06:04;;;;;;;;;;;17.70;99.90;;;;;;7327772;19;9271;-82
2023/08/18 07:08:34;;;;;;;;;;;17.70;99.90;;;;;;7330113;19;9173;-82
2023/08/18 07:11:03;;;;;;;;;;;17.70;99.90;;;;;;7329711;19;9280;-82
2023/08/18 07:13:32;;;;;;;;;;;17.80;99.90;;;;;;7329662;19;9194;-83
2023/08/18 07:16:02;;;;;;;;;;;17.90;99.90;;;;;;7328811;19;10324;-82
2023/08/18 07:18:31;;;;;;;;;;;17.90;99.90;;;;;;7329295;19;9176;-82
2023/08/18 07:21:03;;;;;;;;;;;17.90;99.90;;;;;;7329273;19;9254;-83
2023/08/18 07:23:32;;;;;;;;;;;17.90;99.90;;;;;;7329314;19;9192;-84
2023/08/18 07:26:01;;;;;;;;;;;17.90;99.90;;;;;;7329185;19;9328;-82
2023/08/18 07:28:31;;;;;;;;;;;17.90;99.90;;;;;;7328952;19;9512;-82
2023/08/18 07:31:05;;;;;;;;;;;17.90;99.90;;;;;;7328654;19;9194;-82
2023/08/18 07:33:34;;;;;;;;;;;18.00;99.90;;;;;;7328594;19;8945;-82
2023/08/18 07:36:07;;;;;;;;;;;18.00;99.90;;;;;;7328159;19;9488;-82
2023/08/18 07:38:36;;;;;;;;;;;18.00;99.90;;;;;;7328932;19;9256;-82
2023/08/18 07:41:05;;;;;;;;;;;18.00;99.90;;;;;;7326264;19;9129;-82
2023/08/18 07:43:34;;;;;;;;;;;18.10;99.90;;;;;;7326734;19;9264;-82
2023/08/18 07:46:03;;;;;;;;;;;18.20;99.90;;;;;;7329125;19;9478;-83
2023/08/18 07:48:32;;;;;;;;;;;18.10;99.90;;;;;;7328417;19;9201;-82
2023/08/18 07:51:02;;;;;;;;;;;18.10;99.90;;;;;;7328357;19;9265;-82
2023/08/18 07:53:34;;;;;;;;;;;18.20;99.90;;;;;;7329251;19;9578;-82
2023/08/18 07:56:03;;;;;;;;;;;18.20;99.90;;;;;;7327792;19;9166;-83
2023/08/18 07:58:32;;;;;;;;;;;18.30;99.90;;;;;;7328407;19;9229;-82
2023/08/18 08:01:01;;;;;;;;;;;18.40;99.90;;;;;;7327874;19;9197;-83
2023/08/18 08:03:31;;;;;;;;;;;18.40;99.90;;;;;;7327704;19;9216;-82
2023/08/18 08:06:00;;;;;;;;;;;18.40;99.90;;;;;;7327395;19;9437;-83
2023/08/18 08:08:29;;;;;;;;;;;18.50;99.90;;;;;;7327522;19;9526;-82
2023/08/18 08:11:00;;;;;;;;;;;18.50;99.90;;;;;;7327847;19;9135;-82
2023/08/18 08:13:30;;;;;;;;;;;18.60;99.90;;;;;;7327833;19;9124;-82
2023/08/18 08:15:59;;;;;;;;;;;18.50;99.90;;;;;;7326383;19;9463;-82
2023/08/18 08:18:29;;;;;;;;;;;18.60;99.90;;;;;;7327429;19;9221;-82
2023/08/18 08:20:58;;;;;;;;;;;18.70;99.90;;;;;;7327600;19;9189;-82
2023/08/18 08:23:27;;;;;;;;;;;18.70;99.90;;;;;;7327113;19;9518;-83
2023/08/18 08:25:55;;;;;;;;;;;18.80;99.90;;;;;;7327282;19;9193;-82
2023/08/18 08:28:27;;;;;;;;;;;18.80;99.90;;;;;;7326778;19;10435;-82
2023/08/18 08:30:56;;;;;;;;;;;18.80;99.90;;;;;;7327256;19;9109;-83
2023/08/18 08:33:25;;;;;;;;;;;18.80;99.90;;;;;;7326624;19;10342;-83
2023/08/18 08:35:55;;;;;;;;;;;18.90;99.90;;;;;;7326668;19;9160;-83
2023/08/18 08:38:23;;;;;;;;;;;18.90;99.90;;;;;;7323970;19;9211;-83
2023/08/18 08:40:55;;;;;;;;;;;18.90;99.90;;;;;;7324534;19;9148;-84
2023/08/18 08:43:27;;;;;;;;;;;18.90;99.90;;;;;;7323148;19;9185;-83
2023/08/18 08:45:57;;;;;;;;;;;19.00;99.90;;;;;;7326908;19;9248;-83
2023/08/18 08:48:30;;;;;;;;;;;19.00;99.90;;;;;;7326582;19;8944;-83
2023/08/18 08:51:05;;;;;;;;;;;19.00;99.90;;;;;;7326589;19;9224;-83
2023/08/18 08:53:39;;;;;;;;;;;19.00;99.90;;;;;;7328765;19;9165;-84
2023/08/18 08:56:10;;;;;;;;;;;19.00;99.90;;;;;;7326946;19;9193;-83
2023/08/18 08:58:43;;;;;;;;;;;19.10;99.90;;;;;;7326795;19;9487;-84
2023/08/18 09:01:12;;;;;;;;;;;19.20;99.90;;;;;;7328074;19;9232;-83
2023/08/18 09:03:43;;;;;;;;;;;19.20;99.90;;;;;;7327136;19;9261;-84
2023/08/18 09:06:13;;;;;;;;;;;19.30;99.90;;;;;;7325726;19;10867;-84
2023/08/18 09:08:42;;;;;;;;;;;19.40;99.90;;;;;;7325719;19;9099;-83
2023/08/18 09:11:12;;;;;;;;;;;19.50;99.90;;;;;;7325472;19;9208;-84
2023/08/18 09:13:44;;;;;;;;;;;19.50;99.90;;;;;;7325641;19;8944;-83
2023/08/18 09:16:13;;;;;;;;;;;19.60;99.90;;;;;;7325758;19;9156;-83
2023/08/18 09:18:43;;;;;;;;;;;19.60;99.90;;;;;;7325646;19;9933;-84
2023/08/18 09:21:12;;;;;;;;;;;19.60;99.90;;;;;;7325405;19;9135;-83
2023/08/18 09:23:41;;;;;;;;;;;19.60;99.90;;;;;;7325304;19;9418;-84
2023/08/18 09:26:10;;;;;;;;;;;19.50;99.90;;;;;;7325118;19;9373;-83
2023/08/18 09:28:39;;;;;;;;;;;19.60;99.90;;;;;;7323207;19;9743;-84
2023/08/18 09:31:11;;;;;;;;;;;19.70;99.90;;;;;;7325265;19;9214;-83
2023/08/18 09:33:40;;;;;;;;;;;19.80;99.90;;;;;;7324893;19;8944;-83
2023/08/18 09:36:13;;;;;;;;;;;19.90;99.90;;;;;;7325141;19;9393;-83
2023/08/18 09:38:42;;;;;;;;;;;20.00;99.90;;;;;;7323525;19;9208;-83
2023/08/18 09:41:13;;;;;;;;;;;20.20;99.90;;;;;;7323586;19;9501;-84
2023/08/18 09:43:43;;;;;;;;;;;20.30;99.90;;;;;;7323389;19;9340;-83
2023/08/18 09:46:17;;;;;;;;;;;20.30;99.90;;;;;;7324932;19;9066;-84
2023/08/18 09:48:48;;;;;;;;;;;20.50;99.90;;;;;;7324616;19;9203;-83
2023/08/18 09:51:25;;;;;;;;;;;20.60;99.90;;;;;;7322865;19;10585;-83
2023/08/18 09:54:00;;;;;;;;;;;20.70;99.90;;;;;;7327716;19;10691;-83
2023/08/18 09:56:38;;;;;;;;;;;20.80;99.90;;;;;;7323991;19;9398;-83
2023/08/18 09:59:15;;;;;;;;;;;20.90;99.90;;;;;;7324309;19;9204;-83
2023/08/18 10:01:48;;;;;;;;;;;21.00;99.90;;;;;;7324201;19;9265;-84
2023/08/18 10:04:19;;;;;;;;;;;21.00;99.90;;;;;;7323961;19;9236;-83
2023/08/18 10:06:49;;;;;;;;;;;21.00;99.90;;;;;;7323980;19;8945;-83
2023/08/18 10:09:19;;;;;;;;;;;21.00;99.90;;;;;;7323789;19;9316;-84
2023/08/18 10:11:48;;;;;;;;;;;21.10;99.90;;;;;;7323889;19;9136;-83
2023/08/18 10:14:19;;;;;;;;;;;21.00;99.90;;;;;;7323622;19;9165;-83
2023/08/18 10:16:53;;;;;;;;;;;21.00;99.90;;;;;;7323783;19;9216;-83
2023/08/18 10:19:54;;;;;;;;;;;21.10;99.90;;;;;;7323677;19;9205;-84
2023/08/18 10:22:26;;;;;;;;;;;21.20;99.90;;;;;;7323394;19;9476;-84
2023/08/18 10:24:57;;;;;;;;;;;21.20;99.90;;;;;;7323519;19;9472;-85
2023/08/18 10:27:40;;;;;;;;;;;21.30;99.90;;;;;;7323203;19;9117;-83
2023/08/18 10:30:28;;;;;;;;;;;21.50;99.90;;;;;;7323126;19;9425;-84
2023/08/18 10:33:08;;;;;;;;;;;21.70;99.90;;;;;;7323267;19;9191;-83
2023/08/18 10:35:41;;;;;;;;;;;21.80;99.90;;;;;;7323131;19;9188;-83
2023/08/18 10:38:13;;;;;;;;;;;21.90;99.90;;;;;;7322037;19;8948;-84
2023/08/18 10:40:43;;;;;;;;;;;22.00;99.90;;;;;;7320146;19;9518;-84
2023/08/18 10:43:15;;;;;;;;;;;22.10;99.90;;;;;;7322027;19;9507;-84
2023/08/18 10:45:45;;;;;;;;;;;22.20;99.90;;;;;;7322631;19;9075;-83
2023/08/18 10:48:17;;;;;;;;;;;22.10;99.90;;;;;;7322589;19;9201;-84
2023/08/18 10:50:48;;;;;;;;;;;22.20;99.90;;;;;;7321070;19;10681;-84
2023/08/18 10:53:18;;;;;;;;;;;22.30;99.90;;;;;;7324885;19;9474;-84
2023/08/18 10:55:47;;;;;;;;;;;22.30;99.90;;;;;;7322280;19;9482;-83
2023/08/18 10:58:16;;;;;;;;;;;22.30;99.90;;;;;;7321230;19;9665;-84
2023/08/18 11:00:46;;;;;;;;;;;22.40;99.90;;;;;;7322004;19;9313;-84
2023/08/18 11:03:18;;;;;;;;;;;22.50;99.90;;;;;;7322524;19;9222;-83
2023/08/18 11:05:48;;;;;;;;;;;22.70;99.90;;;;;;7323012;19;10663;-84
2023/08/18 11:08:17;;;;;;;;;;;22.70;99.90;;;;;;7323824;19;9248;-84
2023/08/18 11:10:46;;;;;;;;;;;22.80;99.90;;;;;;7322936;19;9189;-84
2023/08/18 11:13:25;;;;;;;;;;;22.90;99.90;;;;;;7322513;19;9197;-85
2023/08/18 11:15:55;;;;;;;;;;;22.90;99.90;;;;;;7322271;19;9373;-84
2023/08/18 11:18:27;;;;;;;;;;;23.00;99.90;;;;;;7320680;19;9153;-85
2023/08/18 11:20:57;;;;;;;;;;;23.00;99.90;;;;;;7322207;19;9211;-85
2023/08/18 11:23:26;;;;;;;;;;;23.00;99.90;;;;;;7321645;19;9563;-84
2023/08/18 11:25:55;;;;;;;;;;;23.10;99.90;;;;;;7321642;19;9433;-85
2023/08/18 11:28:25;;;;;;;;;;;23.10;99.90;;;;;;7321609;19;11191;-84
2023/08/18 11:30:56;;;;;;;;;;;23.00;99.90;;;;;;7321647;19;9360;-84
2023/08/18 11:33:28;;;;;;;;;;;22.90;99.90;;;;;;7321680;19;10241;-84
2023/08/18 11:35:57;;;;;;;;;;;22.90;99.90;;;;;;7321474;19;9284;-84
2023/08/18 11:38:26;;;;;;;;;;;23.20;99.90;;;;;;7319884;19;10327;-84
2023/08/18 11:40:55;;;;;;;;;;;23.30;99.90;;;;;;7319467;19;9294;-85
2023/08/18 11:43:24;;;;;;;;;;;23.20;99.90;;;;;;7319885;19;9235;-84
2023/08/18 11:45:54;;;;;;;;;;;23.20;99.90;;;;;;7321232;19;9184;-84
2023/08/18 11:48:30;;;;;;;;;;;23.10;99.90;;;;;;7321175;19;9505;-84
2023/08/18 11:50:59;;;;;;;;;;;23.10;99.90;;;;;;7322903;19;9466;-83
2023/08/18 11:53:30;;;;;;;;;;;23.10;99.90;;;;;;7328359;19;8944;-84
2023/08/18 11:55:59;;;;;;;;;;;23.10;99.90;;;;;;7328149;19;9425;-84
2023/08/18 11:58:28;;;;;;;;;;;23.10;99.90;;;;;;7326912;19;9572;-84
2023/08/18 12:00:58;;;;;;;;;;;23.00;99.90;;;;;;7327753;19;9168;-84
2023/08/18 12:03:31;;;;;;;;;;;23.00;99.90;;;;;;7327715;19;9512;-83
2023/08/18 12:06:02;;;;;;;;;;;23.10;99.90;;;;;;7327873;19;9519;-84
2023/08/18 12:08:32;;;;;;;;;;;23.20;99.90;;;;;;7327733;19;9349;-84
2023/08/18 12:11:00;;;;;;;;;;;23.50;99.90;;;;;;7327631;19;9213;-84
2023/08/18 12:13:31;;;;;;;;;;;23.80;99.90;;;;;;7327636;19;9280;-84
2023/08/18 12:16:00;;;;;;;;;;;24.10;99.90;;;;;;7327449;19;9990;-84
2023/08/18 12:18:33;;;;;;;;;;;24.30;99.90;;;;;;7326188;19;10742;-84
2023/08/18 12:21:03;;;;;;;;;;;24.40;99.90;;;;;;7327946;19;9174;-84
2023/08/18 12:23:32;;;;;;;;;;;24.50;99.90;;;;;;7327493;19;9502;-84
2023/08/18 12:26:03;;;;;;;;;;;24.40;99.90;;;;;;7327470;19;10313;-84
2023/08/18 12:28:33;;;;;;;;;;;24.40;99.90;;;;;;7326820;19;9800;-84
2023/08/18 12:31:03;;;;;;;;;;;24.20;99.90;;;;;;7327129;19;9472;-84
2023/08/18 12:33:35;;;;;;;;;;;24.20;99.90;;;;;;7327099;19;9181;-85
2023/08/18 12:36:04;;;;;;;;;;;24.20;99.90;;;;;;7326728;19;9165;-84
2023/08/18 12:38:33;;;;;;;;;;;24.10;99.90;;;;;;7325572;19;9423;-84
2023/08/18 12:41:03;;;;;;;;;;;24.00;99.90;;;;;;7324841;19;9260;-84
2023/08/18 12:43:32;;;;;;;;;;;24.30;99.90;;;;;;7324860;19;9161;-84
2023/08/18 12:46:03;;;;;;;;;;;24.60;99.90;;;;;;7324472;19;9461;-84
2023/08/18 12:48:35;;;;;;;;;;;24.90;99.90;;;;;;7326287;19;9281;-84
2023/08/18 12:51:04;;;;;;;;;;;25.10;99.90;;;;;;7326375;19;9176;-84
2023/08/18 12:53:33;;;;;;;;;;;25.40;99.90;;;;;;7326044;19;9174;-84
2023/08/18 12:56:02;;;;;;;;;;;25.50;99.90;;;;;;7326196;19;9178;-84
2023/08/18 12:58:33;;;;;;;;;;;25.60;99.90;;;;;;7325626;19;9267;-84
2023/08/18 13:01:03;;;;;;;;;;;25.60;99.90;;;;;;7325960;19;9194;-85
2023/08/18 13:03:35;;;;;;;;;;;25.70;99.90;;;;;;7325669;19;9543;-84
2023/08/18 13:06:04;;;;;;;;;;;25.60;99.90;;;;;;7325845;19;9187;-85
2023/08/18 13:08:33;;;;;;;;;;;25.50;99.90;;;;;;7326028;19;9170;-84
2023/08/18 13:11:02;;;;;;;;;;;25.30;99.90;;;;;;7326090;19;9229;-84
2023/08/18 13:13:31;;;;;;;;;;;25.10;99.90;;;;;;7327476;19;9193;-84
2023/08/18 13:16:01;;;;;;;;;;;25.00;99.90;;;;;;7326211;19;9113;-85
2023/08/18 13:18:30;;;;;;;;;;;24.90;99.90;;;;;;7324820;19;10190;-85
2023/08/18 13:21:02;;;;;;;;;;;24.80;99.90;;;;;;7323747;19;10574;-84
2023/08/18 13:23:32;;;;;;;;;;;24.80;99.90;;;;;;7326033;19;10340;-85
2023/08/18 13:26:00;;;;;;;;;;;24.80;99.90;;;;;;7325622;19;9181;-85
2023/08/18 13:28:29;;;;;;;;;;;24.90;99.90;;;;;;7325564;19;8980;-85
2023/08/18 13:30:58;;;;;;;;;;;25.10;99.90;;;;;;7325190;19;9126;-85
2023/08/18 13:33:27;;;;;;;;;;;25.30;99.90;;;;;;7325096;19;9199;-85
2023/08/18 13:35:56;;;;;;;;;;;25.40;99.90;;;;;;7324747;19;9262;-85
2023/08/18 13:38:28;;;;;;;;;;;25.40;99.90;;;;;;7324183;19;9206;-83
2023/08/18 13:40:57;;;;;;;;;;;25.50;99.90;;;;;;7323442;19;9471;-83
2023/08/18 13:43:26;;;;;;;;;;;25.50;99.90;;;;;;7323517;19;10875;-83
2023/08/18 13:45:56;;;;;;;;;;;25.40;99.90;;;;;;7324913;19;9226;-83
2023/08/18 13:48:26;;;;;;;;;;;25.30;99.90;;;;;;7324953;19;9543;-83
2023/08/18 13:50:57;;;;;;;;;;;25.20;99.90;;;;;;7324865;19;9088;-83
2023/08/18 13:53:30;;;;;;;;;;;25.00;99.90;;;;;;7324709;19;9193;-83
2023/08/18 13:55:59;;;;;;;;;;;25.10;99.90;;;;;;7324290;19;9747;-83
2023/08/18 13:58:28;;;;;;;;;;;25.30;99.90;;;;;;7323725;19;9482;-83
2023/08/18 14:00:56;;;;;;;;;;;25.50;99.90;;;;;;7324176;19;9540;-83
2023/08/18 14:03:25;;;;;;;;;;;25.60;99.90;;;;;;7324220;19;10185;-83
2023/08/18 14:05:54;;;;;;;;;;;25.80;99.90;;;;;;7323984;19;9188;-83
2023/08/18 14:08:23;;;;;;;;;;;26.00;99.90;;;;;;7323570;19;10146;-84
2023/08/18 14:10:55;;;;;;;;;;;26.00;99.90;;;;;;7323477;19;9292;-84
2023/08/18 14:13:24;;;;;;;;;;;26.10;99.90;;;;;;7322587;19;9533;-84
2023/08/18 14:15:53;;;;;;;;;;;26.20;99.90;;;;;;7323848;19;9478;-83
2023/08/18 14:18:22;;;;;;;;;;;26.20;99.90;;;;;;7323505;19;9199;-83
2023/08/18 14:20:51;;;;;;;;;;;26.30;99.90;;;;;;7323077;19;9177;-84
2023/08/18 14:23:20;;;;;;;;;;;26.10;99.90;;;;;;7323316;19;9250;-83
2023/08/18 14:25:50;;;;;;;;;;;25.90;99.90;;;;;;7323460;19;9216;-83
2023/08/18 14:28:21;;;;;;;;;;;25.80;99.90;;;;;;7323040;19;9515;-84
2023/08/18 14:30:50;;;;;;;;;;;25.70;99.90;;;;;;7323331;19;9687;-83
2023/08/18 14:33:22;;;;;;;;;;;25.70;99.90;;;;;;7322902;19;9220;-84
2023/08/18 14:35:51;;;;;;;;;;;25.70;99.90;;;;;;7323104;19;9214;-83
2023/08/18 14:38:20;;;;;;;;;;;25.70;99.90;;;;;;7323161;19;9680;-84
2023/08/18 14:40:49;;;;;;;;;;;25.80;99.90;;;;;;7321562;19;10332;-83
2023/08/18 14:43:21;;;;;;;;;;;25.90;99.90;;;;;;7322201;19;10217;-84
2023/08/18 14:45:50;;;;;;;;;;;26.00;99.90;;;;;;7322784;19;9475;-83